sensor_id;sensor_type;location;lat;lon;timestamp;temperature;humidity
4356;DHT22;64374;51.482;7.408;2023-06-22T00:00:48;26.60;99.90
4356;DHT22;64374;51.482;7.408;2023-06-22T00:03:19;26.60;99.90
4356;DHT22;64374;51.482;7.408;2023-06-22T00:05:49;26.60;99.90
4356;DHT22;64374;51.482;7.408;2023-06-22T00:08:19;26.70;99.90
4356;DHT22;64374;51.482;7.408;2023-06-22T00:10:47;26.70;99.90
4356;DHT22;64374;51.482;7.408;2023-06-22T00:13:17;26.50;99.90
4356;DHT22;64374;51.482;7.408;2023-06-22T00:15:45;26.50;99.90
4356;DHT22;64374;51.482;7.408;2023-06-22T00:18:13;26.60;99.90
4356;DHT22;64374;51.482;7.408;2023-06-22T00:20:43;26.50;99.90
4356;DHT22;64374;51.482;7.408;2023-06-22T00:23:12;26.60;99.90
4356;DHT22;64374;51.482;7.408;2023-06-22T00:25:42;26.60;99.90
4356;DHT22;64374;51.482;7.408;2023-06-22T00:28:13;26.50;99.90
4356;DHT22;64374;51.482;7.408;2023-06-22T00:30:43;26.40;99.90
4356;DHT22;64374;51.482;7.408;2023-06-22T00:33:13;26.50;99.90
4356;DHT22;64374;51.482;7.408;2023-06-22T00:35:43;26.40;99.90
4356;DHT22;64374;51.482;7.408;2023-06-22T00:38:12;26.50;99.90
4356;DHT22;64374;51.482;7.408;2023-06-22T00:40:41;26.50;99.90
4356;DHT22;64374;51.482;7.408;2023-06-22T00:43:10;26.50;99.90
4356;DHT22;64374;51.482;7.408;2023-06-22T00:45:38;26.50;99.90
4356;DHT22;64374;51.482;7.408;2023-06-22T00:48:12;26.50;99.90
4356;DHT22;64374;51.482;7.408;2023-06-22T00:50:42;26.60;99.90
4356;DHT22;64374;51.482;7.408;2023-06-22T00:53:11;26.60;99.90
4356;DHT22;64374;51.482;7.408;2023-06-22T00:55:42;26.50;99.90
4356;DHT22;64374;51.482;7.408;2023-06-22T00:58:11;26.60;99.90
4356;DHT22;64374;51.482;7.408;2023-06-22T01:00:42;26.70;99.90
4356;DHT22;64374;51.482;7.408;2023-06-22T01:03:12;26.70;99.90
4356;DHT22;64374;51.482;7.408;2023-06-22T01:05:41;26.50;99.90
4356;DHT22;64374;51.482;7.408;2023-06-22T01:08:23;26.40;99.90
4356;DHT22;64374;51.482;7.408;2023-06-22T01:11:00;26.60;99.90
4356;DHT22;64374;51.482;7.408;2023-06-22T01:13:37;26.60;99.90
4356;DHT22;64374;51.482;7.408;2023-06-22T01:16:12;26.60;99.90
4356;DHT22;64374;51.482;7.408;2023-06-22T01:18:44;26.60;99.90
4356;DHT22;64374;51.482;7.408;2023-06-22T01:21:18;26.60;99.90
4356;DHT22;64374;51.482;7.408;2023-06-22T01:24:09;26.70;99.90
4356;DHT22;64374;51.482;7.408;2023-06-22T01:26:46;26.70;99.90
4356;DHT22;64374;51.482;7.408;2023-06-22T01:29:22;26.60;99.90
4356;DHT22;64374;51.482;7.408;2023-06-22T01:31:56;26.70;99.90
4356;DHT22;64374;51.482;7.408;2023-06-22T01:34:29;26.60;99.90
4356;DHT22;64374;51.482;7.408;2023-06-22T01:37:03;26.40;99.90
4356;DHT22;64374;51.482;7.408;2023-06-22T01:39:32;26.40;99.90
4356;DHT22;64374;51.482;7.408;2023-06-22T01:42:03;26.20;99.90
4356;DHT22;64374;51.482;7.408;2023-06-22T01:44:34;26.10;99.90
4356;DHT22;64374;51.482;7.408;2023-06-22T01:47:03;26.00;99.90
4356;DHT22;64374;51.482;7.408;2023-06-22T01:49:35;26.10;99.90
4356;DHT22;64374;51.482;7.408;2023-06-22T01:52:06;26.20;99.90
4356;DHT22;64374;51.482;7.408;2023-06-22T01:54:39;26.30;99.90
4356;DHT22;64374;51.482;7.408;2023-06-22T01:57:07;26.30;99.90
4356;DHT22;64374;51.482;7.408;2023-06-22T01:59:42;26.30;99.90
4356;DHT22;64374;51.482;7.408;2023-06-22T02:02:22;26.30;99.90
4356;DHT22;64374;51.482;7.408;2023-06-22T02:04:58;26.40;99.90
4356;DHT22;64374;51.482;7.408;2023-06-22T02:07:33;26.50;99.90
4356;DHT22;64374;51.482;7.408;2023-06-22T02:10:04;26.50;99.90
4356;DHT22;64374;51.482;7.408;2023-06-22T02:12:35;26.50;99.90
4356;DHT22;64374;51.482;7.408;2023-06-22T02:15:07;26.40;99.90
4356;DHT22;64374;51.482;7.408;2023-06-22T02:17:37;26.40;99.90
4356;DHT22;64374;51.482;7.408;2023-06-22T02:20:06;26.40;99.90
4356;DHT22;64374;51.482;7.408;2023-06-22T02:22:41;26.30;99.90
4356;DHT22;64374;51.482;7.408;2023-06-22T02:25:10;26.10;99.90
4356;DHT22;64374;51.482;7.408;2023-06-22T02:27:40;26.30;99.90
4356;DHT22;64374;51.482;7.408;2023-06-22T02:30:10;26.20;99.90
4356;DHT22;64374;51.482;7.408;2023-06-22T02:32:39;26.10;99.90
4356;DHT22;64374;51.482;7.408;2023-06-22T02:35:10;26.10;99.90
4356;DHT22;64374;51.482;7.408;2023-06-22T02:37:39;26.10;99.90
4356;DHT22;64374;51.482;7.408;2023-06-22T02:40:09;25.70;99.90
4356;DHT22;64374;51.482;7.408;2023-06-22T02:42:39;25.60;99.90
4356;DHT22;64374;51.482;7.408;2023-06-22T02:45:11;25.70;99.90
4356;DHT22;64374;51.482;7.408;2023-06-22T02:47:42;25.80;99.90
4356;DHT22;64374;51.482;7.408;2023-06-22T02:50:11;25.80;99.90
4356;DHT22;64374;51.482;7.408;2023-06-22T02:52:39;25.70;99.90
4356;DHT22;64374;51.482;7.408;2023-06-22T02:55:08;25.80;99.90
4356;DHT22;64374;51.482;7.408;2023-06-22T02:57:37;25.80;99.90
4356;DHT22;64374;51.482;7.408;2023-06-22T03:00:13;25.80;99.90
4356;DHT22;64374;51.482;7.408;2023-06-22T03:02:48;25.90;99.90
4356;DHT22;64374;51.482;7.408;2023-06-22T03:05:19;25.90;99.90
4356;DHT22;64374;51.482;7.408;2023-06-22T03:07:49;25.90;99.90
4356;DHT22;64374;51.482;7.408;2023-06-22T03:10:17;25.90;99.90
4356;DHT22;64374;51.482;7.408;2023-06-22T03:12:46;25.90;99.90
4356;DHT22;64374;51.482;7.408;2023-06-22T03:15:15;25.80;99.90
4356;DHT22;64374;51.482;7.408;2023-06-22T03:17:44;25.80;99.90
4356;DHT22;64374;51.482;7.408;2023-06-22T03:20:12;25.80;99.90
4356;DHT22;64374;51.482;7.408;2023-06-22T03:22:41;25.80;99.90
4356;DHT22;64374;51.482;7.408;2023-06-22T03:25:11;25.90;99.90
4356;DHT22;64374;51.482;7.408;2023-06-22T03:27:43;25.90;99.90
4356;DHT22;64374;51.482;7.408;2023-06-22T03:30:12;25.90;99.90
4356;DHT22;64374;51.482;7.408;2023-06-22T03:32:42;25.80;99.90
4356;DHT22;64374;51.482;7.408;2023-06-22T03:35:12;25.70;99.90
4356;DHT22;64374;51.482;7.408;2023-06-22T03:37:40;25.70;99.90
4356;DHT22;64374;51.482;7.408;2023-06-22T03:40:10;25.70;99.90
4356;DHT22;64374;51.482;7.408;2023-06-22T03:42:39;25.80;99.90
4356;DHT22;64374;51.482;7.408;2023-06-22T03:45:10;25.90;99.90
4356;DHT22;64374;51.482;7.408;2023-06-22T03:47:38;25.70;99.90
4356;DHT22;64374;51.482;7.408;2023-06-22T03:50:08;25.80;99.90
4356;DHT22;64374;51.482;7.408;2023-06-22T03:52:58;25.70;99.90
4356;DHT22;64374;51.482;7.408;2023-06-22T03:55:28;25.60;99.90
4356;DHT22;64374;51.482;7.408;2023-06-22T03:57:58;25.60;99.90
4356;DHT22;64374;51.482;7.408;2023-06-22T04:00:32;25.70;99.90
4356;DHT22;64374;51.482;7.408;2023-06-22T04:03:01;25.70;99.90
4356;DHT22;64374;51.482;7.408;2023-06-22T04:05:31;25.80;99.90
4356;DHT22;64374;51.482;7.408;2023-06-22T04:07:59;25.90;99.90
4356;DHT22;64374;51.482;7.408;2023-06-22T04:10:28;26.00;99.90
4356;DHT22;64374;51.482;7.408;2023-06-22T04:12:58;26.00;99.90
4356;DHT22;64374;51.482;7.408;2023-06-22T04:15:26;26.00;99.90
4356;DHT22;64374;51.482;7.408;2023-06-22T04:17:55;26.00;99.90
4356;DHT22;64374;51.482;7.408;2023-06-22T04:20:23;25.90;99.90
4356;DHT22;64374;51.482;7.408;2023-06-22T04:22:59;25.90;99.90
4356;DHT22;64374;51.482;7.408;2023-06-22T04:25:29;25.90;99.90
4356;DHT22;64374;51.482;7.408;2023-06-22T04:27:57;26.00;99.90
4356;DHT22;64374;51.482;7.408;2023-06-22T04:30:25;26.00;99.90
4356;DHT22;64374;51.482;7.408;2023-06-22T04:32:54;26.10;99.90
4356;DHT22;64374;51.482;7.408;2023-06-22T04:35:28;26.00;99.90
4356;DHT22;64374;51.482;7.408;2023-06-22T04:37:59;26.00;99.90
4356;DHT22;64374;51.482;7.408;2023-06-22T04:40:28;26.10;99.90
4356;DHT22;64374;51.482;7.408;2023-06-22T04:42:58;26.10;99.90
4356;DHT22;64374;51.482;7.408;2023-06-22T04:45:29;26.10;99.90
4356;DHT22;64374;51.482;7.408;2023-06-22T04:47:57;26.20;99.90
4356;DHT22;64374;51.482;7.408;2023-06-22T04:50:27;26.20;99.90
4356;DHT22;64374;51.482;7.408;2023-06-22T04:52:55;26.20;99.90
4356;DHT22;64374;51.482;7.408;2023-06-22T04:55:25;26.20;99.90
4356;DHT22;64374;51.482;7.408;2023-06-22T04:57:54;26.10;99.90
4356;DHT22;64374;51.482;7.408;2023-06-22T05:00:22;26.10;99.90
4356;DHT22;64374;51.482;7.408;2023-06-22T05:02:50;26.10;99.90
4356;DHT22;64374;51.482;7.408;2023-06-22T05:05:26;26.10;99.90
4356;DHT22;64374;51.482;7.408;2023-06-22T05:07:56;26.10;99.90
4356;DHT22;64374;51.482;7.408;2023-06-22T05:10:29;25.90;99.90
4356;DHT22;64374;51.482;7.408;2023-06-22T05:12:58;25.90;99.90
4356;DHT22;64374;51.482;7.408;2023-06-22T05:15:26;25.90;99.90
4356;DHT22;64374;51.482;7.408;2023-06-22T05:17:58;25.90;99.90
4356;DHT22;64374;51.482;7.408;2023-06-22T05:20:31;26.00;99.90
4356;DHT22;64374;51.482;7.408;2023-06-22T05:23:01;26.10;99.90
4356;DHT22;64374;51.482;7.408;2023-06-22T05:25:30;26.10;99.90
4356;DHT22;64374;51.482;7.408;2023-06-22T05:28:00;26.10;99.90
4356;DHT22;64374;51.482;7.408;2023-06-22T05:30:37;26.20;99.90
4356;DHT22;64374;51.482;7.408;2023-06-22T05:33:06;26.10;99.90
4356;DHT22;64374;51.482;7.408;2023-06-22T05:35:34;26.10;99.90
4356;DHT22;64374;51.482;7.408;2023-06-22T05:38:03;26.10;99.90
4356;DHT22;64374;51.482;7.408;2023-06-22T05:40:33;26.00;99.90
4356;DHT22;64374;51.482;7.408;2023-06-22T05:43:02;25.90;99.90
4356;DHT22;64374;51.482;7.408;2023-06-22T05:45:31;26.00;99.90
4356;DHT22;64374;51.482;7.408;2023-06-22T05:48:00;26.10;99.90
4356;DHT22;64374;51.482;7.408;2023-06-22T05:50:28;26.10;99.90
4356;DHT22;64374;51.482;7.408;2023-06-22T05:52:58;26.10;99.90
4356;DHT22;64374;51.482;7.408;2023-06-22T05:55:26;26.10;99.90
4356;DHT22;64374;51.482;7.408;2023-06-22T05:57:56;26.10;99.90
4356;DHT22;64374;51.482;7.408;2023-06-22T06:00:24;26.20;99.90
4356;DHT22;64374;51.482;7.408;2023-06-22T06:02:56;26.20;99.90
4356;DHT22;64374;51.482;7.408;2023-06-22T06:05:28;26.30;99.90
4356;DHT22;64374;51.482;7.408;2023-06-22T06:07:57;26.40;99.90
4356;DHT22;64374;51.482;7.408;2023-06-22T06:10:26;26.20;99.90
4356;DHT22;64374;51.482;7.408;2023-06-22T06:12:56;26.20;99.90
4356;DHT22;64374;51.482;7.408;2023-06-22T06:15:25;26.10;99.90
4356;DHT22;64374;51.482;7.408;2023-06-22T06:17:54;26.20;99.90
4356;DHT22;64374;51.482;7.408;2023-06-22T06:20:25;26.30;99.90
4356;DHT22;64374;51.482;7.408;2023-06-22T06:22:56;26.40;99.90
4356;DHT22;64374;51.482;7.408;2023-06-22T06:25:25;26.40;99.90
4356;DHT22;64374;51.482;7.408;2023-06-22T06:27:54;26.40;99.90
4356;DHT22;64374;51.482;7.408;2023-06-22T06:30:24;26.50;99.90
4356;DHT22;64374;51.482;7.408;2023-06-22T06:32:54;26.50;99.90
4356;DHT22;64374;51.482;7.408;2023-06-22T06:35:23;26.40;99.90
4356;DHT22;64374;51.482;7.408;2023-06-22T06:37:51;26.40;99.90
4356;DHT22;64374;51.482;7.408;2023-06-22T06:40:20;26.40;99.90
4356;DHT22;64374;51.482;7.408;2023-06-22T06:42:49;26.50;99.90
4356;DHT22;64374;51.482;7.408;2023-06-22T06:45:19;26.40;99.90
4356;DHT22;64374;51.482;7.408;2023-06-22T06:47:54;26.30;99.90
4356;DHT22;64374;51.482;7.408;2023-06-22T06:50:22;26.30;99.90
4356;DHT22;64374;51.482;7.408;2023-06-22T06:52:51;26.40;99.90
4356;DHT22;64374;51.482;7.408;2023-06-22T06:55:19;26.40;99.90
4356;DHT22;64374;51.482;7.408;2023-06-22T06:57:48;26.50;99.90
4356;DHT22;64374;51.482;7.408;2023-06-22T07:00:17;26.50;99.90
4356;DHT22;64374;51.482;7.408;2023-06-22T07:02:46;26.40;99.90
4356;DHT22;64374;51.482;7.408;2023-06-22T07:05:17;26.40;99.90
4356;DHT22;64374;51.482;7.408;2023-06-22T07:07:49;26.40;99.90
4356;DHT22;64374;51.482;7.408;2023-06-22T07:10:17;26.50;99.90
4356;DHT22;64374;51.482;7.408;2023-06-22T07:12:46;26.60;99.90
4356;DHT22;64374;51.482;7.408;2023-06-22T07:15:14;26.60;99.90
4356;DHT22;64374;51.482;7.408;2023-06-22T07:17:42;26.60;99.90
4356;DHT22;64374;51.482;7.408;2023-06-22T07:20:12;26.50;99.90
4356;DHT22;64374;51.482;7.408;2023-06-22T07:22:43;26.50;99.90
4356;DHT22;64374;51.482;7.408;2023-06-22T07:25:13;26.60;99.90
4356;DHT22;64374;51.482;7.408;2023-06-22T07:27:56;26.60;99.90
4356;DHT22;64374;51.482;7.408;2023-06-22T07:30:25;26.70;99.90
4356;DHT22;64374;51.482;7.408;2023-06-22T07:33:01;26.60;99.90
4356;DHT22;64374;51.482;7.408;2023-06-22T07:35:31;26.70;99.90
4356;DHT22;64374;51.482;7.408;2023-06-22T07:38:03;26.70;99.90
4356;DHT22;64374;51.482;7.408;2023-06-22T07:40:33;26.60;99.90
4356;DHT22;64374;51.482;7.408;2023-06-22T07:43:02;26.60;99.90
4356;DHT22;64374;51.482;7.408;2023-06-22T07:45:31;26.50;99.90
4356;DHT22;64374;51.482;7.408;2023-06-22T07:48:03;26.50;99.90
4356;DHT22;64374;51.482;7.408;2023-06-22T07:50:33;26.50;99.90
4356;DHT22;64374;51.482;7.408;2023-06-22T07:53:03;26.60;99.90
4356;DHT22;64374;51.482;7.408;2023-06-22T07:55:32;26.70;99.90
4356;DHT22;64374;51.482;7.408;2023-06-22T07:58:01;26.70;99.90
4356;DHT22;64374;51.482;7.408;2023-06-22T08:00:30;26.70;99.90
4356;DHT22;64374;51.482;7.408;2023-06-22T08:03:00;26.70;99.90
4356;DHT22;64374;51.482;7.408;2023-06-22T08:05:31;26.70;99.90
4356;DHT22;64374;51.482;7.408;2023-06-22T08:07:59;26.80;99.90
4356;DHT22;64374;51.482;7.408;2023-06-22T08:10:29;26.70;99.90
4356;DHT22;64374;51.482;7.408;2023-06-22T08:12:57;26.70;99.90
4356;DHT22;64374;51.482;7.408;2023-06-22T08:15:26;26.80;99.90
4356;DHT22;64374;51.482;7.408;2023-06-22T08:17:56;26.80;99.90
4356;DHT22;64374;51.482;7.408;2023-06-22T08:20:26;26.80;99.90
4356;DHT22;64374;51.482;7.408;2023-06-22T08:22:55;26.80;99.90
4356;DHT22;64374;51.482;7.408;2023-06-22T08:25:25;26.80;99.90
4356;DHT22;64374;51.482;7.408;2023-06-22T08:27:55;26.80;99.90
4356;DHT22;64374;51.482;7.408;2023-06-22T08:30:24;26.90;99.90
4356;DHT22;64374;51.482;7.408;2023-06-22T08:32:52;26.90;99.90
4356;DHT22;64374;51.482;7.408;2023-06-22T08:35:24;26.80;99.90
4356;DHT22;64374;51.482;7.408;2023-06-22T08:37:54;26.90;99.90
4356;DHT22;64374;51.482;7.408;2023-06-22T08:40:24;26.90;99.90
4356;DHT22;64374;51.482;7.408;2023-06-22T08:42:52;27.00;99.90
4356;DHT22;64374;51.482;7.408;2023-06-22T08:45:22;27.10;99.90
4356;DHT22;64374;51.482;7.408;2023-06-22T08:47:54;27.10;99.90
4356;DHT22;64374;51.482;7.408;2023-06-22T08:50:24;27.20;99.90
4356;DHT22;64374;51.482;7.408;2023-06-22T08:52:56;27.20;99.90
4356;DHT22;64374;51.482;7.408;2023-06-22T08:55:25;27.20;99.90
4356;DHT22;64374;51.482;7.408;2023-06-22T08:57:53;27.10;99.90
4356;DHT22;64374;51.482;7.408;2023-06-22T09:00:23;27.10;99.90
4356;DHT22;64374;51.482;7.408;2023-06-22T09:02:51;27.10;99.90
4356;DHT22;64374;51.482;7.408;2023-06-22T09:05:20;27.10;99.90
4356;DHT22;64374;51.482;7.408;2023-06-22T09:07:49;27.20;99.90
4356;DHT22;64374;51.482;7.408;2023-06-22T09:10:18;27.10;99.90
4356;DHT22;64374;51.482;7.408;2023-06-22T09:12:47;27.00;99.90
4356;DHT22;64374;51.482;7.408;2023-06-22T09:15:16;27.10;99.90
4356;DHT22;64374;51.482;7.408;2023-06-22T09:17:46;27.30;99.90
4356;DHT22;64374;51.482;7.408;2023-06-22T09:20:15;27.40;99.90
4356;DHT22;64374;51.482;7.408;2023-06-22T09:22:44;27.50;99.90
4356;DHT22;64374;51.482;7.408;2023-06-22T09:25:12;27.50;99.90
4356;DHT22;64374;51.482;7.408;2023-06-22T09:27:41;27.60;99.90
4356;DHT22;64374;51.482;7.408;2023-06-22T09:30:10;27.70;99.90
4356;DHT22;64374;51.482;7.408;2023-06-22T09:32:39;27.80;99.90
4356;DHT22;64374;51.482;7.408;2023-06-22T09:35:10;27.80;99.90
4356;DHT22;64374;51.482;7.408;2023-06-22T09:37:40;27.80;99.90
4356;DHT22;64374;51.482;7.408;2023-06-22T09:40:09;27.80;99.90
4356;DHT22;64374;51.482;7.408;2023-06-22T09:42:41;27.90;99.90
4356;DHT22;64374;51.482;7.408;2023-06-22T09:45:11;28.00;99.90
4356;DHT22;64374;51.482;7.408;2023-06-22T09:47:39;28.10;99.90
4356;DHT22;64374;51.482;7.408;2023-06-22T09:50:12;28.10;99.90
4356;DHT22;64374;51.482;7.408;2023-06-22T09:52:41;28.20;99.90
4356;DHT22;64374;51.482;7.408;2023-06-22T09:55:17;28.30;99.90
4356;DHT22;64374;51.482;7.408;2023-06-22T09:57:46;28.30;99.90
4356;DHT22;64374;51.482;7.408;2023-06-22T10:00:16;28.40;99.90
4356;DHT22;64374;51.482;7.408;2023-06-22T10:02:47;28.40;99.90
4356;DHT22;64374;51.482;7.408;2023-06-22T10:05:19;28.50;99.90
4356;DHT22;64374;51.482;7.408;2023-06-22T10:07:48;28.60;99.90
4356;DHT22;64374;51.482;7.408;2023-06-22T10:10:16;28.60;99.90
4356;DHT22;64374;51.482;7.408;2023-06-22T10:12:46;28.70;99.90
4356;DHT22;64374;51.482;7.408;2023-06-22T10:15:15;28.80;99.90
4356;DHT22;64374;51.482;7.408;2023-06-22T10:17:44;28.70;99.90
4356;DHT22;64374;51.482;7.408;2023-06-22T10:20:12;28.60;99.90
4356;DHT22;64374;51.482;7.408;2023-06-22T10:22:44;28.50;99.90
4356;DHT22;64374;51.482;7.408;2023-06-22T10:25:13;28.50;99.90
4356;DHT22;64374;51.482;7.408;2023-06-22T10:27:44;28.50;99.90
4356;DHT22;64374;51.482;7.408;2023-06-22T10:30:13;28.50;99.90
4356;DHT22;64374;51.482;7.408;2023-06-22T10:32:43;28.60;99.90
4356;DHT22;64374;51.482;7.408;2023-06-22T10:35:11;28.70;99.90
4356;DHT22;64374;51.482;7.408;2023-06-22T10:37:44;28.80;99.90
4356;DHT22;64374;51.482;7.408;2023-06-22T10:40:13;28.90;99.90
4356;DHT22;64374;51.482;7.408;2023-06-22T10:42:42;28.90;99.90
4356;DHT22;64374;51.482;7.408;2023-06-22T10:45:11;29.00;99.90
4356;DHT22;64374;51.482;7.408;2023-06-22T10:47:42;28.90;99.90
4356;DHT22;64374;51.482;7.408;2023-06-22T10:50:11;29.00;99.90
4356;DHT22;64374;51.482;7.408;2023-06-22T10:52:40;29.00;99.90
4356;DHT22;64374;51.482;7.408;2023-06-22T10:55:11;29.10;99.90
4356;DHT22;64374;51.482;7.408;2023-06-22T10:57:39;29.10;99.90
4356;DHT22;64374;51.482;7.408;2023-06-22T11:00:13;29.00;99.90
4356;DHT22;64374;51.482;7.408;2023-06-22T11:02:43;29.00;99.90
4356;DHT22;64374;51.482;7.408;2023-06-22T11:05:13;29.00;99.90
4356;DHT22;64374;51.482;7.408;2023-06-22T11:07:43;28.90;99.90
4356;DHT22;64374;51.482;7.408;2023-06-22T11:10:14;28.90;99.90
4356;DHT22;64374;51.482;7.408;2023-06-22T11:12:43;28.90;99.90
4356;DHT22;64374;51.482;7.408;2023-06-22T11:15:11;28.80;99.90
4356;DHT22;64374;51.482;7.408;2023-06-22T11:17:40;28.80;99.90
4356;DHT22;64374;51.482;7.408;2023-06-22T11:20:08;28.70;99.90
4356;DHT22;64374;51.482;7.408;2023-06-22T11:22:39;28.70;99.90
4356;DHT22;64374;51.482;7.408;2023-06-22T11:25:07;28.70;99.90
4356;DHT22;64374;51.482;7.408;2023-06-22T11:27:39;28.70;99.90
4356;DHT22;64374;51.482;7.408;2023-06-22T11:30:08;28.70;99.90
4356;DHT22;64374;51.482;7.408;2023-06-22T11:32:37;28.70;99.90
4356;DHT22;64374;51.482;7.408;2023-06-22T11:35:06;28.60;99.90
4356;DHT22;64374;51.482;7.408;2023-06-22T11:37:35;28.60;99.90
4356;DHT22;64374;51.482;7.408;2023-06-22T11:40:12;28.50;99.90
4356;DHT22;64374;51.482;7.408;2023-06-22T11:42:42;28.40;99.90
4356;DHT22;64374;51.482;7.408;2023-06-22T11:45:10;28.30;99.90
4356;DHT22;64374;51.482;7.408;2023-06-22T11:47:38;28.20;99.90
4356;DHT22;64374;51.482;7.408;2023-06-22T11:50:08;28.10;99.90
4356;DHT22;64374;51.482;7.408;2023-06-22T11:52:37;28.00;99.90
4356;DHT22;64374;51.482;7.408;2023-06-22T11:55:06;28.00;99.90
4356;DHT22;64374;51.482;7.408;2023-06-22T11:57:37;27.90;99.90
4356;DHT22;64374;51.482;7.408;2023-06-22T12:00:08;27.70;99.90
4356;DHT22;64374;51.482;7.408;2023-06-22T12:02:44;27.40;99.90
4356;DHT22;64374;51.482;7.408;2023-06-22T12:05:14;27.30;99.90
4356;DHT22;64374;51.482;7.408;2023-06-22T12:07:42;27.30;99.90
4356;DHT22;64374;51.482;7.408;2023-06-22T12:10:10;27.20;99.90
4356;DHT22;64374;51.482;7.408;2023-06-22T12:12:39;26.90;99.90
4356;DHT22;64374;51.482;7.408;2023-06-22T12:15:09;26.80;99.90
4356;DHT22;64374;51.482;7.408;2023-06-22T12:17:38;26.80;99.90
4356;DHT22;64374;51.482;7.408;2023-06-22T12:20:08;26.90;99.90
4356;DHT22;64374;51.482;7.408;2023-06-22T12:22:40;27.00;99.90
4356;DHT22;64374;51.482;7.408;2023-06-22T12:25:08;27.10;99.90
4356;DHT22;64374;51.482;7.408;2023-06-22T12:27:37;27.10;99.90
4356;DHT22;64374;51.482;7.408;2023-06-22T12:30:08;27.10;99.90
4356;DHT22;64374;51.482;7.408;2023-06-22T12:32:38;26.90;99.90
4356;DHT22;64374;51.482;7.408;2023-06-22T12:35:09;26.90;99.90
4356;DHT22;64374;51.482;7.408;2023-06-22T12:37:41;26.90;99.90
4356;DHT22;64374;51.482;7.408;2023-06-22T12:40:11;27.00;99.90
4356;DHT22;64374;51.482;7.408;2023-06-22T12:42:41;27.00;99.90
4356;DHT22;64374;51.482;7.408;2023-06-22T12:45:10;26.90;99.90
4356;DHT22;64374;51.482;7.408;2023-06-22T12:47:40;26.80;99.90
4356;DHT22;64374;51.482;7.408;2023-06-22T12:50:08;26.80;99.90
4356;DHT22;64374;51.482;7.408;2023-06-22T12:52:37;26.70;99.90
4356;DHT22;64374;51.482;7.408;2023-06-22T12:55:08;26.50;99.90
4356;DHT22;64374;51.482;7.408;2023-06-22T12:57:36;26.60;99.90
4356;DHT22;64374;51.482;7.408;2023-06-22T13:00:07;26.50;99.90
4356;DHT22;64374;51.482;7.408;2023-06-22T13:02:40;26.60;99.90
4356;DHT22;64374;51.482;7.408;2023-06-22T13:05:09;26.70;99.90
4356;DHT22;64374;51.482;7.408;2023-06-22T13:07:38;26.80;99.90
4356;DHT22;64374;51.482;7.408;2023-06-22T13:10:07;26.90;99.90
4356;DHT22;64374;51.482;7.408;2023-06-22T13:12:38;26.90;99.90
4356;DHT22;64374;51.482;7.408;2023-06-22T13:15:08;26.90;99.90
4356;DHT22;64374;51.482;7.408;2023-06-22T13:17:36;27.00;99.90
4356;DHT22;64374;51.482;7.408;2023-06-22T13:20:07;27.00;99.90
4356;DHT22;64374;51.482;7.408;2023-06-22T13:22:36;26.90;99.90
4356;DHT22;64374;51.482;7.408;2023-06-22T13:25:10;27.10;99.90
4356;DHT22;64374;51.482;7.408;2023-06-22T13:27:40;27.10;99.90
4356;DHT22;64374;51.482;7.408;2023-06-22T13:30:09;27.30;99.90
4356;DHT22;64374;51.482;7.408;2023-06-22T13:32:44;27.40;99.90
4356;DHT22;64374;51.482;7.408;2023-06-22T13:35:14;27.40;99.90
4356;DHT22;64374;51.482;7.408;2023-06-22T13:37:42;27.50;99.90
4356;DHT22;64374;51.482;7.408;2023-06-22T13:40:11;27.70;99.90
4356;DHT22;64374;51.482;7.408;2023-06-22T13:42:40;27.70;99.90
4356;DHT22;64374;51.482;7.408;2023-06-22T13:45:09;27.60;99.90
4356;DHT22;64374;51.482;7.408;2023-06-22T13:47:38;27.60;99.90
4356;DHT22;64374;51.482;7.408;2023-06-22T13:50:30;27.50;99.90
4356;DHT22;64374;51.482;7.408;2023-06-22T13:52:58;27.40;99.90
4356;DHT22;64374;51.482;7.408;2023-06-22T13:55:27;27.40;99.90
4356;DHT22;64374;51.482;7.408;2023-06-22T13:57:55;27.50;99.90
4356;DHT22;64374;51.482;7.408;2023-06-22T14:00:24;27.50;99.90
4356;DHT22;64374;51.482;7.408;2023-06-22T14:02:52;27.40;99.90
4356;DHT22;64374;51.482;7.408;2023-06-22T14:05:21;27.30;99.90
4356;DHT22;64374;51.482;7.408;2023-06-22T14:07:52;27.30;99.90
4356;DHT22;64374;51.482;7.408;2023-06-22T14:10:21;27.40;99.90
4356;DHT22;64374;51.482;7.408;2023-06-22T14:12:49;27.40;99.90
4356;DHT22;64374;51.482;7.408;2023-06-22T14:15:21;27.20;99.90
4356;DHT22;64374;51.482;7.408;2023-06-22T14:17:49;27.20;99.90
4356;DHT22;64374;51.482;7.408;2023-06-22T14:20:20;27.20;99.90
4356;DHT22;64374;51.482;7.408;2023-06-22T14:22:48;27.40;99.90
4356;DHT22;64374;51.482;7.408;2023-06-22T14:25:17;27.50;99.90
4356;DHT22;64374;51.482;7.408;2023-06-22T14:27:46;27.40;99.90
4356;DHT22;64374;51.482;7.408;2023-06-22T14:30:14;27.40;99.90
4356;DHT22;64374;51.482;7.408;2023-06-22T14:32:43;27.40;99.90
4356;DHT22;64374;51.482;7.408;2023-06-22T14:35:12;27.40;99.90
4356;DHT22;64374;51.482;7.408;2023-06-22T14:37:41;27.20;99.90
4356;DHT22;64374;51.482;7.408;2023-06-22T14:40:10;27.30;99.90
4356;DHT22;64374;51.482;7.408;2023-06-22T14:42:40;27.20;99.90
4356;DHT22;64374;51.482;7.408;2023-06-22T14:45:12;27.20;99.90
4356;DHT22;64374;51.482;7.408;2023-06-22T14:47:40;27.00;99.90
4356;DHT22;64374;51.482;7.408;2023-06-22T14:50:09;27.00;99.90
4356;DHT22;64374;51.482;7.408;2023-06-22T14:52:41;27.00;99.90
4356;DHT22;64374;51.482;7.408;2023-06-22T14:55:10;27.00;99.90
4356;DHT22;64374;51.482;7.408;2023-06-22T14:57:41;27.00;99.90
4356;DHT22;64374;51.482;7.408;2023-06-22T15:00:11;27.10;99.90
4356;DHT22;64374;51.482;7.408;2023-06-22T15:02:39;27.10;99.90
4356;DHT22;64374;51.482;7.408;2023-06-22T15:05:08;27.10;99.90
4356;DHT22;64374;51.482;7.408;2023-06-22T15:07:37;27.20;99.90
4356;DHT22;64374;51.482;7.408;2023-06-22T15:10:06;27.20;99.90
4356;DHT22;64374;51.482;7.408;2023-06-22T15:12:34;27.10;99.90
4356;DHT22;64374;51.482;7.408;2023-06-22T15:15:09;27.00;99.90
4356;DHT22;64374;51.482;7.408;2023-06-22T15:17:38;27.10;99.90
4356;DHT22;64374;51.482;7.408;2023-06-22T15:20:09;27.00;99.90
4356;DHT22;64374;51.482;7.408;2023-06-22T15:22:38;27.10;99.90
4356;DHT22;64374;51.482;7.408;2023-06-22T15:25:06;27.10;99.90
4356;DHT22;64374;51.482;7.408;2023-06-22T15:27:35;27.10;99.90
4356;DHT22;64374;51.482;7.408;2023-06-22T15:30:06;27.00;99.90
4356;DHT22;64374;51.482;7.408;2023-06-22T15:32:34;27.00;99.90
4356;DHT22;64374;51.482;7.408;2023-06-22T15:35:03;27.10;99.90
4356;DHT22;64374;51.482;7.408;2023-06-22T15:37:31;27.10;99.90
4356;DHT22;64374;51.482;7.408;2023-06-22T15:40:00;27.10;99.90
4356;DHT22;64374;51.482;7.408;2023-06-22T15:42:29;27.10;99.90
4356;DHT22;64374;51.482;7.408;2023-06-22T15:44:57;26.80;99.90
4356;DHT22;64374;51.482;7.408;2023-06-22T15:47:27;26.80;99.90
4356;DHT22;64374;51.482;7.408;2023-06-22T15:50:17;26.90;99.90
4356;DHT22;64374;51.482;7.408;2023-06-22T15:52:45;28.10;99.90
4356;DHT22;64374;51.482;7.408;2023-06-22T15:55:18;28.40;99.90
4356;DHT22;64374;51.482;7.408;2023-06-22T15:57:47;28.70;99.90
4356;DHT22;64374;51.482;7.408;2023-06-22T16:00:16;28.90;99.90
4356;DHT22;64374;51.482;7.408;2023-06-22T16:02:47;28.90;99.90